Time;durP1;ratioP1;P1;durP2;ratioP2;P2;SDS_P1;SDS_P2;PMS_P1;PMS_P2;Temp;Humidity;BMP_temperature;BMP_pressure;BME280_temperature;BME280_humidity;BME280_pressure;Samples;Min_cycle;Max_cycle;Signal;HPM_P1;HPM_P2
2021/06/13 00:00:14;;;;;;;1999.90;999.90;;;13.40;99.90;;;;;;4976279;28;20416;-68
2021/06/13 00:02:42;;;;;;;1999.90;999.90;;;13.40;99.90;;;;;;4976476;28;20480;-67
2021/06/13 00:05:09;;;;;;;1999.90;999.90;;;13.40;99.90;;;;;;4976445;28;20972;-68
2021/06/13 00:07:35;;;;;;;1999.90;999.90;;;13.40;99.90;;;;;;4976893;28;20477;-67
2021/06/13 00:10:01;;;;;;;1999.90;999.90;;;13.40;99.90;;;;;;4976037;28;20436;-66
2021/06/13 00:12:26;;;;;;;1999.90;999.90;;;13.30;99.90;;;;;;4974487;28;20237;-65
2021/06/13 00:14:52;;;;;;;1999.90;999.90;;;13.30;99.90;;;;;;4974093;28;20249;-66
2021/06/13 00:17:17;;;;;;;1999.90;999.90;;;13.30;99.90;;;;;;4974302;28;20207;-66
2021/06/13 00:19:44;;;;;;;1999.90;999.90;;;13.40;99.90;;;;;;4974504;28;20547;-66
2021/06/13 00:22:10;;;;;;;1999.90;999.90;;;13.40;99.90;;;;;;4974233;28;20174;-66
2021/06/13 00:24:36;;;;;;;1999.90;999.90;;;13.30;99.90;;;;;;4973912;28;20510;-66
2021/06/13 00:27:01;;;;;;;1999.90;999.90;;;13.30;99.90;;;;;;4974090;28;20651;-67
2021/06/13 00:29:27;;;;;;;1999.90;999.90;;;13.30;99.90;;;;;;4974186;28;20183;-65
2021/06/13 00:31:52;;;;;;;1999.90;999.90;;;13.20;99.90;;;;;;4974022;28;20688;-65
2021/06/13 00:34:18;;;;;;;1999.90;999.90;;;13.20;99.90;;;;;;4973848;28;20202;-65
2021/06/13 00:36:44;;;;;;;1999.90;999.90;;;13.20;99.90;;;;;;4973941;28;20280;-66
2021/06/13 00:39:09;;;;;;;1999.90;999.90;;;13.10;99.90;;;;;;4974087;28;20184;-66
2021/06/13 00:41:35;;;;;;;1999.90;999.90;;;13.10;99.90;;;;;;4973994;28;20188;-66
2021/06/13 00:44:00;;;;;;;1999.90;999.90;;;13.10;99.90;;;;;;4972079;28;20196;-65
2021/06/13 00:46:26;;;;;;;1999.90;999.90;;;13.00;99.90;;;;;;4973718;28;20242;-65
2021/06/13 00:48:52;;;;;;;1999.90;999.90;;;13.00;99.90;;;;;;4973789;28;20235;-66
2021/06/13 00:51:17;;;;;;;1999.90;999.90;;;13.00;99.90;;;;;;4973731;28;20706;-65
2021/06/13 00:53:44;;;;;;;1999.90;999.90;;;12.90;99.90;;;;;;4973586;28;20171;-65
2021/06/13 00:56:10;;;;;;;1999.90;999.90;;;12.90;99.90;;;;;;4973640;28;20561;-66
2021/06/13 00:58:36;;;;;;;1999.90;999.90;;;12.90;99.90;;;;;;4973669;28;20414;-65
2021/06/13 01:01:01;;;;;;;1999.90;999.90;;;12.80;99.90;;;;;;4973693;28;20185;-65
2021/06/13 01:03:27;;;;;;;1999.90;999.90;;;12.80;99.90;;;;;;4973628;28;20555;-65
2021/06/13 01:05:53;;;;;;;1999.90;999.90;;;12.80;99.90;;;;;;4972997;28;20215;-66
2021/06/13 01:08:26;;;;;;;1999.90;999.90;;;12.70;99.90;;;;;;4973471;28;20171;-66
2021/06/13 01:11:01;;;;;;;1999.90;999.90;;;12.70;99.90;;;;;;4973573;28;20731;-67
2021/06/13 01:13:43;;;;;;;1999.90;999.90;;;12.70;99.90;;;;;;4974638;28;20849;-67
2021/06/13 01:16:17;;;;;;;1999.90;999.90;;;12.70;99.90;;;;;;4973699;28;20935;-67
2021/06/13 01:18:50;;;;;;;1999.90;999.90;;;12.60;99.90;;;;;;4974504;28;20745;-67
2021/06/13 01:21:43;;;;;;;1999.90;999.90;;;12.60;99.90;;;;;;4975056;28;20557;-68
2021/06/13 01:24:27;;;;;;;1999.90;999.90;;;12.60;99.90;;;;;;4974782;28;20820;-67
2021/06/13 01:27:31;;;;;;;1999.90;999.90;;;12.60;99.90;;;;;;4974842;28;20544;-67
2021/06/13 01:29:58;;;;;;;1999.90;999.90;;;12.60;99.90;;;;;;4974607;28;20405;-68
2021/06/13 01:32:27;;;;;;;1999.90;999.90;;;12.50;99.90;;;;;;4974501;28;20402;-68
2021/06/13 01:34:58;;;;;;;1999.90;999.90;;;12.50;99.90;;;;;;4974102;28;20419;-66
2021/06/13 01:37:27;;;;;;;1999.90;999.90;;;12.50;99.90;;;;;;4973167;28;20402;-66
2021/06/13 01:40:03;;;;;;;1999.90;999.90;;;12.40;99.90;;;;;;4973138;28;20417;-67
2021/06/13 01:42:30;;;;;;;1999.90;999.90;;;12.40;99.90;;;;;;4972903;28;20436;-66
2021/06/13 01:45:00;;;;;;;1999.90;999.90;;;12.40;99.90;;;;;;4972716;28;20421;-66
2021/06/13 01:47:26;;;;;;;1999.90;999.90;;;12.40;99.90;;;;;;4972970;28;20570;-66
2021/06/13 01:49:54;;;;;;;1999.90;999.90;;;12.40;99.90;;;;;;4973771;28;20772;-68
2021/06/13 01:52:22;;;;;;;1999.90;999.90;;;12.30;99.90;;;;;;4974197;28;20406;-68
2021/06/13 01:54:50;;;;;;;1999.90;999.90;;;12.30;99.90;;;;;;4975366;28;20433;-68
2021/06/13 01:57:16;;;;;;;1999.90;999.90;;;12.30;99.90;;;;;;4976979;28;20425;-66
2021/06/13 01:59:43;;;;;;;1999.90;999.90;;;12.30;99.90;;;;;;4976875;28;20473;-66
2021/06/13 02:02:12;;;;;;;1999.90;999.90;;;12.20;99.90;;;;;;4976824;28;20408;-65
2021/06/13 02:04:38;;;;;;;1999.90;999.90;;;12.20;99.90;;;;;;4976361;28;20425;-66
2021/06/13 02:07:05;;;;;;;1999.90;999.90;;;12.20;99.90;;;;;;4976649;28;20449;-66
2021/06/13 02:09:32;;;;;;;1999.90;999.90;;;12.20;99.90;;;;;;4976673;28;20413;-65
2021/06/13 02:12:02;;;;;;;1999.90;999.90;;;12.20;99.90;;;;;;4976601;28;20771;-66
2021/06/13 02:14:30;;;;;;;1999.90;999.90;;;12.20;99.90;;;;;;4976481;28;20401;-66
2021/06/13 02:16:58;;;;;;;1999.90;999.90;;;12.20;99.90;;;;;;4976487;28;20987;-66
2021/06/13 02:19:25;;;;;;;1999.90;999.90;;;12.20;99.90;;;;;;4976527;28;21039;-66
2021/06/13 02:21:55;;;;;;;1999.90;999.90;;;12.10;99.90;;;;;;4976508;28;20789;-66
2021/06/13 02:24:24;;;;;;;1999.90;999.90;;;12.10;99.90;;;;;;4976107;28;20414;-67
2021/06/13 02:26:50;;;;;;;1999.90;999.90;;;12.10;99.90;;;;;;4976509;28;20591;-67
2021/06/13 02:29:18;;;;;;;1999.90;999.90;;;12.10;99.90;;;;;;4976398;28;20425;-66
2021/06/13 02:31:47;;;;;;;1999.90;999.90;;;12.20;99.90;;;;;;4975059;28;20425;-66
2021/06/13 02:34:18;;;;;;;1999.90;999.90;;;12.10;99.90;;;;;;4975974;28;20410;-66
2021/06/13 02:36:46;;;;;;;1999.90;999.90;;;12.10;99.90;;;;;;4976174;28;20447;-66
2021/06/13 02:39:11;;;;;;;1999.90;999.90;;;12.10;99.90;;;;;;4976197;28;20413;-67
2021/06/13 02:41:37;;;;;;;1999.90;999.90;;;12.10;99.90;;;;;;4976135;28;20412;-67
2021/06/13 02:44:04;;;;;;;1999.90;999.90;;;12.10;99.90;;;;;;4975829;28;20714;-66
2021/06/13 02:46:30;;;;;;;1999.90;999.90;;;12.10;99.90;;;;;;4975910;28;20469;-68
2021/06/13 02:48:55;;;;;;;1999.90;999.90;;;12.00;99.90;;;;;;4976131;28;20456;-65
2021/06/13 02:51:26;;;;;;;1999.90;999.90;;;12.00;99.90;;;;;;4975980;28;20695;-66
2021/06/13 02:53:55;;;;;;;1999.90;999.90;;;11.90;99.90;;;;;;4975756;28;20162;-66
2021/06/13 02:56:45;;;;;;;1999.90;999.90;;;12.00;99.90;;;;;;4975970;28;20512;-66
2021/06/13 02:59:40;;;;;;;1999.90;999.90;;;11.90;99.90;;;;;;4975911;28;20810;-66
2021/06/13 03:02:11;;;;;;;1999.90;999.90;;;11.90;99.90;;;;;;4975746;28;20412;-66
2021/06/13 03:04:39;;;;;;;1999.90;999.90;;;11.80;99.90;;;;;;4975312;28;20434;-66
2021/06/13 03:07:06;;;;;;;1999.90;999.90;;;11.80;99.90;;;;;;4975328;28;20464;-66
2021/06/13 03:09:36;;;;;;;1999.90;999.90;;;11.70;99.90;;;;;;4975620;28;20456;-66
2021/06/13 03:12:03;;;;;;;1999.90;999.90;;;11.70;99.90;;;;;;4975644;28;20398;-66
2021/06/13 03:14:33;;;;;;;1999.90;999.90;;;11.70;99.90;;;;;;4975086;28;20412;-65
2021/06/13 03:17:00;;;;;;;1999.90;999.90;;;11.60;99.90;;;;;;4975414;28;20412;-65
2021/06/13 03:19:27;;;;;;;1999.90;999.90;;;11.60;99.90;;;;;;4975493;28;20417;-66
2021/06/13 03:21:54;;;;;;;1999.90;999.90;;;11.60;99.90;;;;;;4975437;28;20413;-66
2021/06/13 03:24:22;;;;;;;1999.90;999.90;;;11.50;99.90;;;;;;4975066;28;20542;-65
2021/06/13 03:26:49;;;;;;;1999.90;999.90;;;11.40;99.90;;;;;;4975189;28;20463;-66
2021/06/13 03:29:16;;;;;;;1999.90;999.90;;;11.40;99.90;;;;;;4975849;28;20424;-68
2021/06/13 03:31:42;;;;;;;1999.90;999.90;;;11.40;99.90;;;;;;4976110;28;20406;-66
2021/06/13 03:34:09;;;;;;;1999.90;999.90;;;11.40;99.90;;;;;;4976004;28;20401;-67
2021/06/13 03:36:38;;;;;;;1999.90;999.90;;;11.40;99.90;;;;;;4976266;28;21036;-67
2021/06/13 03:39:04;;;;;;;1999.90;999.90;;;11.40;99.90;;;;;;4975529;28;20416;-66
2021/06/13 03:41:30;;;;;;;1999.90;999.90;;;11.50;99.90;;;;;;4975028;28;20504;-67
2021/06/13 03:43:56;;;;;;;1999.90;999.90;;;11.50;99.90;;;;;;4974735;28;20458;-66
2021/06/13 03:46:22;;;;;;;1999.90;999.90;;;11.50;99.90;;;;;;4974769;28;20454;-66
2021/06/13 03:48:50;;;;;;;1999.90;999.90;;;11.60;99.90;;;;;;4977308;23;20505;-63
2021/06/13 03:51:17;;;;;;;1999.90;999.90;;;11.60;99.90;;;;;;4955513;28;20856;-62
2021/06/13 03:53:47;;;;;;;1999.90;999.90;;;11.70;99.90;;;;;;4955397;28;20775;-64
2021/06/13 03:56:22;;;;;;;1999.90;999.90;;;11.60;99.90;;;;;;4955280;28;20414;-63
2021/06/13 03:58:49;;;;;;;1999.90;999.90;;;11.60;99.90;;;;;;4955336;28;20422;-63
2021/06/13 04:01:18;;;;;;;1999.90;999.90;;;11.70;99.90;;;;;;4955314;28;20422;-64
2021/06/13 04:03:52;;;;;;;1999.90;999.90;;;11.80;99.90;;;;;;4955205;28;20773;-64
2021/06/13 04:06:22;;;;;;;1999.90;999.90;;;11.90;99.90;;;;;;4955189;29;20493;-65
2021/06/13 04:08:49;;;;;;;1999.90;999.90;;;12.00;99.90;;;;;;4955138;28;20434;-64
2021/06/13 04:11:17;;;;;;;1999.90;999.90;;;12.20;99.90;;;;;;4955410;28;20960;-64
2021/06/13 04:13:44;;;;;;;1999.90;999.90;;;12.30;99.90;;;;;;4954973;28;20404;-63
2021/06/13 04:16:11;;;;;;;1999.90;999.90;;;12.30;99.90;;;;;;4954958;28;20462;-64
2021/06/13 04:18:37;;;;;;;1999.90;999.90;;;12.30;99.90;;;;;;4954421;28;20481;-63
2021/06/13 04:21:10;;;;;;;1999.90;999.90;;;12.40;99.90;;;;;;4954993;28;20506;-63
2021/06/13 04:23:38;;;;;;;1999.90;999.90;;;12.40;99.90;;;;;;4954889;28;20418;-64
2021/06/13 04:26:03;;;;;;;1999.90;999.90;;;12.40;99.90;;;;;;4954545;28;20493;-64
2021/06/13 04:28:29;;;;;;;1999.90;999.90;;;12.40;99.90;;;;;;4954789;28;20435;-65
2021/06/13 04:31:01;;;;;;;1999.90;999.90;;;12.50;99.90;;;;;;4954812;28;20242;-63
2021/06/13 04:33:30;;;;;;;1999.90;999.90;;;12.60;99.90;;;;;;4954750;28;20432;-62
2021/06/13 04:35:57;;;;;;;1999.90;999.90;;;12.60;99.90;;;;;;4954681;28;20419;-65
2021/06/13 04:38:22;;;;;;;1999.90;999.90;;;12.60;99.90;;;;;;4954743;28;20836;-65
2021/06/13 04:40:48;;;;;;;1999.90;999.90;;;12.70;99.90;;;;;;4954655;28;20407;-63
2021/06/13 04:43:14;;;;;;;1999.90;999.90;;;12.80;99.90;;;;;;4954572;28;20171;-64
2021/06/13 04:45:39;;;;;;;1999.90;999.90;;;12.80;99.90;;;;;;4954261;28;20160;-63
2021/06/13 04:48:07;;;;;;;1999.90;999.90;;;12.80;99.90;;;;;;4954185;28;20207;-62
2021/06/13 04:50:39;;;;;;;1999.90;999.90;;;12.80;99.90;;;;;;4954677;28;20554;-65
2021/06/13 04:53:34;;;;;;;1999.90;999.90;;;12.90;99.90;;;;;;4954416;28;20411;-65
2021/06/13 04:56:07;;;;;;;1999.90;999.90;;;12.90;99.90;;;;;;4954188;28;20776;-63
2021/06/13 04:58:32;;;;;;;1999.90;999.90;;;13.00;99.90;;;;;;4953123;29;20419;-64
2021/06/13 05:00:58;;;;;;;1999.90;999.90;;;13.00;99.90;;;;;;4954248;28;20470;-63
2021/06/13 05:03:24;;;;;;;1999.90;999.90;;;12.90;99.90;;;;;;4954230;28;20601;-64
2021/06/13 05:05:50;;;;;;;1999.90;999.90;;;12.80;99.90;;;;;;4953959;28;20171;-64
2021/06/13 05:08:16;;;;;;;1999.90;999.90;;;12.70;99.90;;;;;;4954123;28;20187;-63
2021/06/13 05:10:41;;;;;;;1999.90;999.90;;;12.70;99.90;;;;;;4954200;28;20563;-64
2021/06/13 05:13:17;;;;;;;1999.90;999.90;;;12.70;99.90;;;;;;4954084;28;20172;-65
2021/06/13 05:15:43;;;;;;;1999.90;999.90;;;12.70;99.90;;;;;;4953808;28;20167;-65
2021/06/13 05:18:09;;;;;;;1999.90;999.90;;;12.70;99.90;;;;;;4953965;28;20823;-63
2021/06/13 05:20:35;;;;;;;1999.90;999.90;;;12.70;99.90;;;;;;4954032;28;20446;-62
2021/06/13 05:23:06;;;;;;;1999.90;999.90;;;12.70;99.90;;;;;;4954027;28;20175;-61
2021/06/13 05:25:34;;;;;;;1999.90;999.90;;;12.80;99.90;;;;;;4953748;28;20175;-63
2021/06/13 05:28:01;;;;;;;1999.90;999.90;;;12.90;99.90;;;;;;4954081;28;20462;-62
2021/06/13 05:30:29;;;;;;;1999.90;999.90;;;13.00;99.90;;;;;;4953878;28;20478;-62
2021/06/13 05:32:55;;;;;;;1999.90;999.90;;;13.00;99.90;;;;;;4953868;28;20399;-63
2021/06/13 05:35:22;;;;;;;1999.90;999.90;;;13.20;99.90;;;;;;4953658;28;20497;-63
2021/06/13 05:37:48;;;;;;;1999.90;999.90;;;13.20;99.90;;;;;;4953927;28;20485;-62
2021/06/13 05:40:14;;;;;;;1999.90;999.90;;;13.30;99.90;;;;;;4953817;28;20900;-62
2021/06/13 05:42:40;;;;;;;1999.90;999.90;;;13.30;99.90;;;;;;4953867;28;20167;-62
2021/06/13 05:45:07;;;;;;;1999.90;999.90;;;13.50;99.90;;;;;;4953536;28;20412;-62
2021/06/13 05:47:33;;;;;;;1999.90;999.90;;;13.50;99.90;;;;;;4953604;28;20616;-63
2021/06/13 05:49:59;;;;;;;1999.90;999.90;;;13.60;99.90;;;;;;4953784;28;20479;-63
2021/06/13 05:52:24;;;;;;;1999.90;999.90;;;13.60;99.90;;;;;;4953759;28;20170;-62
2021/06/13 05:54:51;;;;;;;1999.90;999.90;;;13.80;99.90;;;;;;4953463;28;20716;-65
2021/06/13 05:57:17;;;;;;;1999.90;999.90;;;13.90;99.90;;;;;;4953840;28;20668;-63
2021/06/13 05:59:43;;;;;;;1999.90;999.90;;;14.00;99.90;;;;;;4953596;28;20904;-63
2021/06/13 06:02:09;;;;;;;1999.90;999.90;;;14.10;99.90;;;;;;4953730;28;20417;-63
2021/06/13 06:04:34;;;;;;;1999.90;999.90;;;14.20;99.90;;;;;;4953405;28;20172;-64
2021/06/13 06:07:00;;;;;;;1999.90;999.90;;;14.40;99.90;;;;;;4953599;28;20281;-64
2021/06/13 06:09:25;;;;;;;1999.90;999.90;;;14.50;99.90;;;;;;4953515;28;20189;-63
2021/06/13 06:11:52;;;;;;;1999.90;999.90;;;14.50;99.90;;;;;;4953588;28;20171;-63
2021/06/13 06:14:17;;;;;;;1999.90;999.90;;;14.50;99.90;;;;;;4953222;28;20176;-64
2021/06/13 06:16:45;;;;;;;1999.90;999.90;;;14.60;99.90;;;;;;4953583;28;20460;-65
2021/06/13 06:19:10;;;;;;;1999.90;999.90;;;14.60;99.90;;;;;;4953486;28;20194;-64
2021/06/13 06:21:36;;;;;;;1999.90;999.90;;;14.60;99.90;;;;;;4953518;28;20514;-64
2021/06/13 06:24:02;;;;;;;1999.90;999.90;;;14.70;99.90;;;;;;4953192;28;20222;-63
2021/06/13 06:26:27;;;;;;;1999.90;999.90;;;14.80;99.90;;;;;;4953380;28;20247;-63
2021/06/13 06:28:53;;;;;;;1999.90;999.90;;;14.90;99.90;;;;;;4953396;28;20283;-62
2021/06/13 06:31:18;;;;;;;1999.90;999.90;;;15.00;99.90;;;;;;4953345;28;20229;-62
2021/06/13 06:33:44;;;;;;;1999.90;999.90;;;15.00;99.90;;;;;;4953217;28;20936;-63
2021/06/13 06:36:10;;;;;;;1999.90;999.90;;;15.10;99.90;;;;;;4953330;28;20248;-63
2021/06/13 06:38:35;;;;;;;1999.90;999.90;;;15.20;99.90;;;;;;4953249;28;20195;-63
2021/06/13 06:41:01;;;;;;;1999.90;999.90;;;15.20;99.90;;;;;;4955245;28;20599;-62
2021/06/13 06:43:26;;;;;;;1999.90;999.90;;;15.10;99.90;;;;;;4956736;28;20188;-63
2021/06/13 06:45:52;;;;;;;1999.90;999.90;;;15.30;99.90;;;;;;4956477;28;20197;-63
2021/06/13 06:48:18;;;;;;;1999.90;999.90;;;15.50;99.90;;;;;;4956568;28;20217;-62
2021/06/13 06:50:44;;;;;;;1999.90;999.90;;;15.50;99.90;;;;;;4956732;28;20188;-62
2021/06/13 06:53:09;;;;;;;1999.90;999.90;;;15.50;99.90;;;;;;4956664;28;20175;-63
2021/06/13 06:55:35;;;;;;;1999.90;999.90;;;15.50;99.90;;;;;;4956396;28;20549;-62
2021/06/13 06:58:01;;;;;;;1999.90;999.90;;;15.50;99.90;;;;;;4956478;28;20190;-63
2021/06/13 07:00:27;;;;;;;1999.90;999.90;;;15.60;99.90;;;;;;4956582;28;20633;-62
2021/06/13 07:02:52;;;;;;;1999.90;999.90;;;15.80;99.90;;;;;;4956633;28;20182;-62
2021/06/13 07:05:18;;;;;;;1999.90;999.90;;;15.80;99.90;;;;;;4956200;28;20565;-62
2021/06/13 07:07:44;;;;;;;1999.90;999.90;;;15.80;99.90;;;;;;4956142;28;20211;-62
2021/06/13 07:10:11;;;;;;;1999.90;999.90;;;15.70;99.90;;;;;;4956354;28;20481;-62
2021/06/13 07:12:37;;;;;;;1999.90;999.90;;;15.70;99.90;;;;;;4956255;28;20890;-63
2021/06/13 07:15:04;;;;;;;1999.90;999.90;;;15.60;99.90;;;;;;4956051;28;20406;-63
2021/06/13 07:17:30;;;;;;;1999.90;999.90;;;15.70;99.90;;;;;;4956137;28;20200;-64
2021/06/13 07:19:56;;;;;;;1999.90;999.90;;;15.80;99.90;;;;;;4956195;28;20417;-65
2021/06/13 07:22:23;;;;;;;1999.90;999.90;;;15.80;99.90;;;;;;4956038;28;20183;-63
2021/06/13 07:24:49;;;;;;;1999.90;999.90;;;15.80;99.90;;;;;;4956020;28;20176;-63
2021/06/13 07:27:15;;;;;;;1999.90;999.90;;;15.80;99.90;;;;;;4955906;28;20458;-64
2021/06/13 07:29:40;;;;;;;1999.90;999.90;;;16.00;99.90;;;;;;4956108;28;20948;-64
2021/06/13 07:32:06;;;;;;;1999.90;999.90;;;16.10;99.90;;;;;;4956106;28;20681;-64
2021/06/13 07:34:32;;;;;;;1999.90;999.90;;;16.40;99.90;;;;;;4955650;28;20179;-64
2021/06/13 07:37:02;;;;;;;1999.90;999.90;;;16.60;99.90;;;;;;4955828;28;20257;-63
2021/06/13 07:39:28;;;;;;;1999.90;999.90;;;16.90;99.90;;;;;;4956095;28;20190;-64
2021/06/13 07:41:54;;;;;;;1999.90;999.90;;;17.00;99.90;;;;;;4955700;28;20410;-63
2021/06/13 07:44:20;;;;;;;1999.90;999.90;;;17.10;99.90;;;;;;4955536;28;20218;-64
2021/06/13 07:46:46;;;;;;;1999.90;999.90;;;17.30;99.90;;;;;;4955547;28;20492;-64
2021/06/13 07:49:12;;;;;;;1999.90;999.90;;;17.50;99.90;;;;;;4955478;28;20453;-64
2021/06/13 07:51:38;;;;;;;1999.90;999.90;;;17.60;99.90;;;;;;4954866;28;20899;-63
2021/06/13 07:54:04;;;;;;;1999.90;999.90;;;17.70;99.90;;;;;;4955068;28;20185;-63
2021/06/13 07:56:30;;;;;;;1999.90;999.90;;;17.80;99.90;;;;;;4955510;28;20179;-62
2021/06/13 07:58:55;;;;;;;1999.90;999.90;;;18.00;99.90;;;;;;4955428;28;20454;-64
2021/06/13 08:01:21;;;;;;;1999.90;999.90;;;18.00;99.90;;;;;;4955467;28;20293;-65
2021/06/13 08:03:46;;;;;;;1999.90;999.90;;;18.10;99.90;;;;;;4955136;28;20225;-63
2021/06/13 08:06:12;;;;;;;1999.90;999.90;;;18.10;99.90;;;;;;4951314;28;20609;-63
2021/06/13 08:08:38;;;;;;;1999.90;999.90;;;18.20;99.90;;;;;;4953815;28;20203;-64
2021/06/13 08:11:04;;;;;;;1999.90;999.90;;;18.20;99.90;;;;;;4953711;28;20228;-65
2021/06/13 08:13:31;;;;;;;1999.90;999.90;;;17.90;99.90;;;;;;4953153;28;20182;-63
2021/06/13 08:15:56;;;;;;;1999.90;999.90;;;18.00;99.90;;;;;;4950442;28;20446;-63
2021/06/13 08:18:22;;;;;;;1999.90;999.90;;;18.00;99.90;;;;;;4948319;28;20477;-63
2021/06/13 08:20:48;;;;;;;1999.90;999.90;;;18.10;99.90;;;;;;4950570;28;20226;-64
2021/06/13 08:23:14;;;;;;;1999.90;999.90;;;18.10;99.90;;;;;;4950921;28;20178;-64
2021/06/13 08:25:39;;;;;;;1999.90;999.90;;;18.10;99.90;;;;;;4950607;28;20177;-64
2021/06/13 08:28:05;;;;;;;1999.90;999.90;;;18.20;99.90;;;;;;4948798;28;20224;-64
2021/06/13 08:30:31;;;;;;;1999.90;999.90;;;18.40;99.90;;;;;;4949571;28;20196;-63
2021/06/13 08:32:58;;;;;;;1999.90;999.90;;;18.40;99.90;;;;;;4950339;28;20183;-63
2021/06/13 08:35:23;;;;;;;1999.90;999.90;;;18.70;99.90;;;;;;4951055;28;20244;-65
2021/06/13 08:37:49;;;;;;;1999.90;999.90;;;18.90;99.90;;;;;;4950987;28;20468;-64
2021/06/13 08:40:15;;;;;;;1999.90;999.90;;;19.20;99.90;;;;;;4953136;28;20191;-64
2021/06/13 08:42:43;;;;;;;1999.90;999.90;;;19.20;99.90;;;;;;4952480;28;20509;-64
2021/06/13 08:45:12;;;;;;;1999.90;999.90;;;19.30;99.90;;;;;;4951439;28;20403;-66
2021/06/13 08:47:38;;;;;;;1999.90;999.90;;;19.40;99.90;;;;;;4951000;28;20521;-64
2021/06/13 08:50:06;;;;;;;1999.90;999.90;;;19.40;99.90;;;;;;4950947;28;20778;-64
2021/06/13 08:52:31;;;;;;;1999.90;999.90;;;19.50;99.90;;;;;;4951497;28;20425;-65
2021/06/13 08:55:01;;;;;;;1999.90;999.90;;;19.60;99.90;;;;;;4950467;28;20417;-63
2021/06/13 08:57:27;;;;;;;1999.90;999.90;;;19.70;99.90;;;;;;4950580;28;20263;-64
2021/06/13 08:59:52;;;;;;;1999.90;999.90;;;19.50;99.90;;;;;;4950499;28;20412;-64
2021/06/13 09:02:19;;;;;;;1999.90;999.90;;;19.60;99.90;;;;;;4951296;28;20450;-65
2021/06/13 09:04:45;;;;;;;1999.90;999.90;;;19.70;99.90;;;;;;4950541;28;20184;-65
2021/06/13 09:07:21;;;;;;;1999.90;999.90;;;19.80;99.90;;;;;;4950933;28;20484;-65
2021/06/13 09:09:47;;;;;;;1999.90;999.90;;;20.00;99.90;;;;;;4951100;28;20197;-66
2021/06/13 09:12:13;;;;;;;1999.90;999.90;;;20.20;99.90;;;;;;4950969;28;20838;-66
2021/06/13 09:14:40;;;;;;;1999.90;999.90;;;20.30;99.90;;;;;;4950927;28;20171;-64
2021/06/13 09:17:28;;;;;;;1999.90;999.90;;;20.40;99.90;;;;;;4950051;28;20270;-63
2021/06/13 09:20:05;;;;;;;1999.90;999.90;;;20.40;99.90;;;;;;4949762;28;21084;-64
2021/06/13 09:22:32;;;;;;;1999.90;999.90;;;20.50;99.90;;;;;;4951002;28;20633;-63
2021/06/13 09:25:11;;;;;;;1999.90;999.90;;;20.50;99.90;;;;;;4951923;28;20413;-65
2021/06/13 09:27:39;;;;;;;1999.90;999.90;;;20.60;99.90;;;;;;4951462;28;20473;-64
2021/06/13 09:30:07;;;;;;;1999.90;999.90;;;20.60;99.90;;;;;;4952125;29;20504;-64
2021/06/13 09:33:04;;;;;;;1999.90;999.90;;;20.60;99.90;;;;;;4952045;28;20421;-62
2021/06/13 09:35:31;;;;;;;1999.90;999.90;;;20.70;99.90;;;;;;4951414;28;20486;-64
2021/06/13 09:38:09;;;;;;;1999.90;999.90;;;20.70;99.90;;;;;;4950814;28;20431;-63
2021/06/13 09:40:36;;;;;;;1999.90;999.90;;;20.90;99.90;;;;;;4951227;28;20411;-64
2021/06/13 09:43:13;;;;;;;1999.90;999.90;;;21.00;99.90;;;;;;4950869;28;20411;-63
2021/06/13 09:45:39;;;;;;;1999.90;999.90;;;21.10;99.90;;;;;;4951614;28;20416;-64
2021/06/13 09:48:06;;;;;;;1999.90;999.90;;;21.20;99.90;;;;;;4951447;28;21046;-64
2021/06/13 09:50:37;;;;;;;1999.90;999.90;;;21.10;99.90;;;;;;4951603;28;20414;-65
2021/06/13 09:53:20;;;;;;;1999.90;999.90;;;21.10;99.90;;;;;;4951743;28;20413;-64
2021/06/13 09:55:47;;;;;;;1999.90;999.90;;;21.10;99.90;;;;;;4951133;28;20414;-64
2021/06/13 09:58:14;;;;;;;1999.90;999.90;;;21.30;99.90;;;;;;4949110;28;20413;-63
2021/06/13 10:00:40;;;;;;;1999.90;999.90;;;21.30;99.90;;;;;;4952552;28;20392;-65
2021/06/13 10:03:24;;;;;;;1999.90;999.90;;;20.90;99.90;;;;;;4950827;28;20470;-64
2021/06/13 10:05:58;;;;;;;1999.90;999.90;;;20.90;99.90;;;;;;4950689;28;20493;-64
2021/06/13 10:08:28;;;;;;;1999.90;999.90;;;21.00;99.90;;;;;;4951403;28;20442;-64
2021/06/13 10:11:00;;;;;;;1999.90;999.90;;;20.80;99.90;;;;;;4951541;28;20411;-64
2021/06/13 10:13:53;;;;;;;1999.90;999.90;;;21.00;99.90;;;;;;4951319;28;20438;-64
2021/06/13 10:16:30;;;;;;;1999.90;999.90;;;21.10;99.90;;;;;;4953422;28;20409;-65
2021/06/13 10:19:24;;;;;;;1999.90;999.90;;;21.30;99.90;;;;;;4954096;28;20517;-65
2021/06/13 10:21:55;;;;;;;1999.90;999.90;;;21.30;99.90;;;;;;4953719;28;20423;-65
2021/06/13 10:24:23;;;;;;;1999.90;999.90;;;21.40;99.90;;;;;;4953541;28;20988;-65
2021/06/13 10:26:53;;;;;;;1999.90;999.90;;;21.70;99.90;;;;;;4954377;28;20542;-65
2021/06/13 10:29:21;;;;;;;1999.90;999.90;;;21.80;99.90;;;;;;4955163;28;20458;-65
2021/06/13 10:31:49;;;;;;;1999.90;999.90;;;22.10;99.90;;;;;;4954955;28;20807;-65
2021/06/13 10:34:16;;;;;;;1999.90;999.90;;;22.30;99.90;;;;;;4954492;28;20970;-64
2021/06/13 10:36:43;;;;;;;1999.90;999.90;;;22.50;99.90;;;;;;4954514;28;20410;-64
2021/06/13 10:39:12;;;;;;;1999.90;999.90;;;22.50;99.90;;;;;;4954705;28;20994;-63
2021/06/13 10:41:38;;;;;;;1999.90;999.90;;;22.30;99.90;;;;;;4953880;28;20466;-64
2021/06/13 10:44:10;;;;;;;1999.90;999.90;;;21.80;99.90;;;;;;4953247;28;20411;-64
2021/06/13 10:46:39;;;;;;;1999.90;999.90;;;21.30;99.90;;;;;;4954212;28;20467;-63
2021/06/13 10:49:09;;;;;;;1999.90;999.90;;;21.00;99.90;;;;;;4954212;28;20460;-64
2021/06/13 10:51:37;;;;;;;1999.90;999.90;;;21.10;99.90;;;;;;4954770;28;20469;-63
2021/06/13 10:54:36;;;;;;;1999.90;999.90;;;21.10;99.90;;;;;;4954124;28;20829;-65
2021/06/13 10:57:07;;;;;;;1999.90;999.90;;;21.20;99.90;;;;;;4953099;28;20421;-65
2021/06/13 10:59:40;;;;;;;1999.90;999.90;;;21.40;99.90;;;;;;4954557;28;20932;-64
2021/06/13 11:02:19;;;;;;;1999.90;999.90;;;21.30;99.90;;;;;;4954789;28;20474;-64
2021/06/13 11:05:00;;;;;;;1999.90;999.90;;;21.40;99.90;;;;;;4952386;28;20455;-62
2021/06/13 11:07:35;;;;;;;1999.90;999.90;;;21.10;99.90;;;;;;4954517;28;20839;-62
2021/06/13 11:12:59;;;;;;;1999.90;999.90;;;21.10;99.90;;;;;;4954434;28;20489;-63
2021/06/13 11:15:31;;;;;;;1999.90;999.90;;;21.10;99.90;;;;;;4954214;28;20437;-63
2021/06/13 11:18:18;;;;;;;1999.90;999.90;;;21.50;99.90;;;;;;4953317;28;21230;-62
2021/06/13 11:20:50;;;;;;;1999.90;999.90;;;21.90;99.90;;;;;;4954491;28;20403;-63
2021/06/13 11:23:36;;;;;;;1999.90;999.90;;;22.40;99.90;;;;;;4953718;28;20419;-64
2021/06/13 11:26:05;;;;;;;1999.90;999.90;;;22.80;99.90;;;;;;4952466;28;20420;-63
2021/06/13 11:28:42;;;;;;;1999.90;999.90;;;22.80;99.90;;;;;;4954334;28;20839;-64
2021/06/13 11:31:12;;;;;;;1999.90;999.90;;;23.00;99.90;;;;;;4954286;28;21054;-63
2021/06/13 11:34:00;;;;;;;1999.90;999.90;;;23.20;99.90;;;;;;4953667;28;20448;-62
2021/06/13 11:36:46;;;;;;;1999.90;999.90;;;22.90;99.90;;;;;;4953561;28;20543;-63
2021/06/13 11:39:12;;;;;;;1999.90;999.90;;;23.00;99.90;;;;;;4953799;28;20439;-65
2021/06/13 11:41:45;;;;;;;1999.90;999.90;;;22.90;99.90;;;;;;4953720;28;20417;-63
2021/06/13 11:44:20;;;;;;;1999.90;999.90;;;23.10;99.90;;;;;;4952204;28;20559;-63
2021/06/13 11:46:52;;;;;;;1999.90;999.90;;;22.90;99.90;;;;;;4953314;28;20473;-63
2021/06/13 11:49:41;;;;;;;1999.90;999.90;;;22.20;99.90;;;;;;4953488;28;20991;-63
2021/06/13 11:52:06;;;;;;;1999.90;999.90;;;22.30;99.90;;;;;;4953912;28;20423;-63
2021/06/13 11:54:47;;;;;;;1999.90;999.90;;;22.60;99.90;;;;;;4953336;28;20421;-63
2021/06/13 11:57:13;;;;;;;1999.90;999.90;;;22.80;99.90;;;;;;4953123;28;20674;-63
2021/06/13 11:59:43;;;;;;;1999.90;999.90;;;23.10;99.90;;;;;;4954144;28;20422;-63
2021/06/13 12:02:11;;;;;;;1999.90;999.90;;;23.60;99.90;;;;;;4953298;28;20185;-65
2021/06/13 12:04:37;;;;;;;1999.90;999.90;;;24.20;99.90;;;;;;4951636;28;20468;-64
2021/06/13 12:07:08;;;;;;;1999.90;999.90;;;24.90;99.90;;;;;;4952952;28;20428;-66
2021/06/13 12:09:34;;;;;;;1999.90;999.90;;;25.40;99.90;;;;;;4953155;28;20473;-64